sensor_id;sensor_type;location;lat;lon;timestamp;pressure;altitude;pressure_sealevel;temperature;humidity
65718;BME280;52445;52.466;-1.016;2023-06-24T00:02:01;100877.56;;;20.39;60.74
65718;BME280;52445;52.466;-1.016;2023-06-24T00:04:28;100870.69;;;20.35;61.04
65718;BME280;52445;52.466;-1.016;2023-06-24T00:06:55;100876.97;;;20.31;61.16
65718;BME280;52445;52.466;-1.016;2023-06-24T00:09:27;100873.56;;;20.27;61.26
65718;BME280;52445;52.466;-1.016;2023-06-24T00:11:55;100862.38;;;20.20;60.97
65718;BME280;52445;52.466;-1.016;2023-06-24T00:14:23;100863.34;;;20.16;61.19
65718;BME280;52445;52.466;-1.016;2023-06-24T00:16:50;100860.91;;;20.10;61.43
65718;BME280;52445;52.466;-1.016;2023-06-24T00:19:22;100861.00;;;20.07;61.46
65718;BME280;52445;52.466;-1.016;2023-06-24T00:21:49;100857.66;;;20.01;61.41
65718;BME280;52445;52.466;-1.016;2023-06-24T00:24:22;100855.13;;;19.97;61.32
65718;BME280;52445;52.466;-1.016;2023-06-24T00:26:52;100858.78;;;19.91;61.66
65718;BME280;52445;52.466;-1.016;2023-06-24T00:29:19;100851.06;;;19.85;61.49
65718;BME280;52445;52.466;-1.016;2023-06-24T00:31:46;100854.69;;;19.81;61.48
65718;BME280;52445;52.466;-1.016;2023-06-24T00:34:13;100848.69;;;19.77;62.29
65718;BME280;52445;52.466;-1.016;2023-06-24T00:36:40;100851.44;;;19.72;61.78
65718;BME280;52445;52.466;-1.016;2023-06-24T00:39:07;100856.78;;;19.69;61.78
65718;BME280;52445;52.466;-1.016;2023-06-24T00:41:34;100854.25;;;19.66;62.21
65718;BME280;52445;52.466;-1.016;2023-06-24T00:44:01;100863.97;;;19.62;61.83
65718;BME280;52445;52.466;-1.016;2023-06-24T00:46:28;100864.91;;;19.60;61.94
65718;BME280;52445;52.466;-1.016;2023-06-24T00:48:56;100866.72;;;19.58;62.45
65718;BME280;52445;52.466;-1.016;2023-06-24T00:51:23;100879.97;;;19.55;62.17
65718;BME280;52445;52.466;-1.016;2023-06-24T00:53:53;100875.41;;;19.26;62.87
65718;BME280;52445;52.466;-1.016;2023-06-24T00:56:21;100875.84;;;19.44;62.27
65718;BME280;52445;52.466;-1.016;2023-06-24T00:58:49;100871.50;;;19.43;62.39
65718;BME280;52445;52.466;-1.016;2023-06-24T01:01:17;100864.63;;;19.39;62.61
65718;BME280;52445;52.466;-1.016;2023-06-24T01:03:43;100865.44;;;19.39;62.76
65718;BME280;52445;52.466;-1.016;2023-06-24T01:06:11;100861.16;;;19.37;62.74
65718;BME280;52445;52.466;-1.016;2023-06-24T01:08:39;100868.28;;;19.32;62.42
65718;BME280;52445;52.466;-1.016;2023-06-24T01:11:06;100869.19;;;19.31;62.74
65718;BME280;52445;52.466;-1.016;2023-06-24T01:13:32;100865.72;;;19.30;63.03
65718;BME280;52445;52.466;-1.016;2023-06-24T01:16:05;100863.13;;;19.29;62.84
65718;BME280;52445;52.466;-1.016;2023-06-24T01:18:40;100858.84;;;19.24;62.96
65718;BME280;52445;52.466;-1.016;2023-06-24T01:21:21;100867.69;;;19.22;63.09
65718;BME280;52445;52.466;-1.016;2023-06-24T01:24:25;100867.06;;;19.12;62.97
65718;BME280;52445;52.466;-1.016;2023-06-24T01:35:03;100864.50;;;19.09;63.44
65718;BME280;52445;52.466;-1.016;2023-06-24T01:40:34;100867.22;;;19.02;63.94
65718;BME280;52445;52.466;-1.016;2023-06-24T01:43:05;100868.19;;;19.00;63.76
65718;BME280;52445;52.466;-1.016;2023-06-24T01:45:40;100869.13;;;18.97;63.84
65718;BME280;52445;52.466;-1.016;2023-06-24T01:48:14;100870.91;;;18.95;63.23
65718;BME280;52445;52.466;-1.016;2023-06-24T01:50:48;100875.34;;;18.93;63.39
65718;BME280;52445;52.466;-1.016;2023-06-24T01:53:17;100865.75;;;18.92;63.74
65718;BME280;52445;52.466;-1.016;2023-06-24T01:55:46;100858.78;;;18.89;64.00
65718;BME280;52445;52.466;-1.016;2023-06-24T01:58:14;100864.13;;;18.88;63.88
65718;BME280;52445;52.466;-1.016;2023-06-24T02:00:43;100864.19;;;18.85;63.88
65718;BME280;52445;52.466;-1.016;2023-06-24T02:03:11;100865.97;;;18.83;63.97
65718;BME280;52445;52.466;-1.016;2023-06-24T02:05:39;100861.66;;;18.80;64.18
65718;BME280;52445;52.466;-1.016;2023-06-24T02:08:09;100862.59;;;18.78;63.90
65718;BME280;52445;52.466;-1.016;2023-06-24T02:10:38;100853.88;;;18.75;64.55
65718;BME280;52445;52.466;-1.016;2023-06-24T02:13:08;100862.66;;;18.74;64.21
65718;BME280;52445;52.466;-1.016;2023-06-24T02:15:37;100867.97;;;18.71;64.46
65718;BME280;52445;52.466;-1.016;2023-06-24T02:18:05;100868.97;;;18.67;64.22
65718;BME280;52445;52.466;-1.016;2023-06-24T02:20:33;100864.63;;;18.66;64.17
65718;BME280;52445;52.466;-1.016;2023-06-24T02:23:01;100871.66;;;18.64;64.67
65718;BME280;52445;52.466;-1.016;2023-06-24T02:25:28;100871.69;;;18.62;64.71
65718;BME280;52445;52.466;-1.016;2023-06-24T02:27:56;100879.63;;;18.61;64.47
65718;BME280;52445;52.466;-1.016;2023-06-24T02:30:24;100871.75;;;18.61;64.76
65718;BME280;52445;52.466;-1.016;2023-06-24T02:32:52;100872.66;;;18.58;64.62
65718;BME280;52445;52.466;-1.016;2023-06-24T02:35:19;100874.47;;;18.56;65.11
65718;BME280;52445;52.466;-1.016;2023-06-24T02:37:45;100873.59;;;18.56;64.44
65718;BME280;52445;52.466;-1.016;2023-06-24T02:40:12;100877.13;;;18.55;64.79
65718;BME280;52445;52.466;-1.016;2023-06-24T02:42:39;100874.53;;;18.53;64.98
65718;BME280;52445;52.466;-1.016;2023-06-24T02:45:06;100871.94;;;18.52;64.69
65718;BME280;52445;52.466;-1.016;2023-06-24T02:47:33;100874.59;;;18.50;65.32
65718;BME280;52445;52.466;-1.016;2023-06-24T02:50:03;100865.94;;;18.46;64.54
65718;BME280;52445;52.466;-1.016;2023-06-24T02:52:32;100870.34;;;18.44;65.15
65718;BME280;52445;52.466;-1.016;2023-06-24T02:54:59;100863.38;;;18.43;65.61
65718;BME280;52445;52.466;-1.016;2023-06-24T02:57:26;100859.91;;;18.41;64.88
65718;BME280;52445;52.466;-1.016;2023-06-24T02:59:53;100861.72;;;18.39;65.62
65718;BME280;52445;52.466;-1.016;2023-06-24T03:02:19;100852.16;;;18.38;65.42
65718;BME280;52445;52.466;-1.016;2023-06-24T03:04:48;100857.41;;;18.36;65.17
65718;BME280;52445;52.466;-1.016;2023-06-24T03:07:16;100860.06;;;18.35;65.28
65718;BME280;52445;52.466;-1.016;2023-06-24T03:09:47;100856.59;;;18.33;65.92
65718;BME280;52445;52.466;-1.016;2023-06-24T03:12:14;100855.78;;;18.31;65.92
65718;BME280;52445;52.466;-1.016;2023-06-24T03:14:40;100853.22;;;18.28;66.05
65718;BME280;52445;52.466;-1.016;2023-06-24T03:17:07;100844.53;;;18.26;65.72
65718;BME280;52445;52.466;-1.016;2023-06-24T03:19:34;100855.09;;;18.22;66.21
65718;BME280;52445;52.466;-1.016;2023-06-24T03:22:01;100848.22;;;18.18;65.77
65718;BME280;52445;52.466;-1.016;2023-06-24T03:24:29;100851.69;;;18.17;66.42
65718;BME280;52445;52.466;-1.016;2023-06-24T03:26:55;100848.28;;;18.14;65.91
65718;BME280;52445;52.466;-1.016;2023-06-24T03:29:23;100853.56;;;18.12;66.75
65718;BME280;52445;52.466;-1.016;2023-06-24T03:31:50;100848.34;;;18.10;65.85
65718;BME280;52445;52.466;-1.016;2023-06-24T03:34:17;100840.53;;;18.07;66.43
65718;BME280;52445;52.466;-1.016;2023-06-24T03:36:43;100845.78;;;18.06;66.65
65718;BME280;52445;52.466;-1.016;2023-06-24T03:39:10;100839.75;;;18.04;66.16
65718;BME280;52445;52.466;-1.016;2023-06-24T03:41:37;100838.03;;;18.03;66.35
65718;BME280;52445;52.466;-1.016;2023-06-24T03:44:03;100838.88;;;18.02;66.17
65718;BME280;52445;52.466;-1.016;2023-06-24T03:46:30;100833.66;;;18.02;66.46
65718;BME280;52445;52.466;-1.016;2023-06-24T03:48:59;100842.41;;;18.01;66.33
65718;BME280;52445;52.466;-1.016;2023-06-24T03:51:27;100852.00;;;18.02;66.69
65718;BME280;52445;52.466;-1.016;2023-06-24T03:53:53;100850.22;;;18.04;66.90
65718;BME280;52445;52.466;-1.016;2023-06-24T03:56:20;100844.97;;;18.04;66.52
65718;BME280;52445;52.466;-1.016;2023-06-24T03:58:47;100846.69;;;18.05;67.33
65718;BME280;52445;52.466;-1.016;2023-06-24T04:01:13;100841.44;;;18.05;66.81
65718;BME280;52445;52.466;-1.016;2023-06-24T04:03:40;100846.69;;;18.05;66.75
65718;BME280;52445;52.466;-1.016;2023-06-24T04:06:07;100843.16;;;18.06;66.91
65718;BME280;52445;52.466;-1.016;2023-06-24T04:08:33;100851.84;;;18.11;67.27
65718;BME280;52445;52.466;-1.016;2023-06-24T04:11:00;100850.91;;;18.14;67.33
65718;BME280;52445;52.466;-1.016;2023-06-24T04:13:29;100858.69;;;18.18;67.47
65718;BME280;52445;52.466;-1.016;2023-06-24T04:15:57;100864.72;;;18.22;67.45
65718;BME280;52445;52.466;-1.016;2023-06-24T04:18:24;100849.78;;;18.26;67.54
65718;BME280;52445;52.466;-1.016;2023-06-24T04:20:51;100848.88;;;18.28;67.55
65718;BME280;52445;52.466;-1.016;2023-06-24T04:23:17;100840.03;;;18.32;68.02
65718;BME280;52445;52.466;-1.016;2023-06-24T04:25:44;100848.72;;;18.34;67.47
65718;BME280;52445;52.466;-1.016;2023-06-24T04:28:10;100850.38;;;18.39;67.50
65718;BME280;52445;52.466;-1.016;2023-06-24T04:30:37;100860.75;;;18.43;68.21
65718;BME280;52445;52.466;-1.016;2023-06-24T04:33:05;100864.16;;;18.47;67.78
65718;BME280;52445;52.466;-1.016;2023-06-24T04:35:32;100864.97;;;18.50;67.82
65718;BME280;52445;52.466;-1.016;2023-06-24T04:37:59;100861.38;;;18.55;68.39
65718;BME280;52445;52.466;-1.016;2023-06-24T04:40:26;100870.06;;;18.57;68.47
65718;BME280;52445;52.466;-1.016;2023-06-24T04:42:53;100870.00;;;18.60;68.32
65718;BME280;52445;52.466;-1.016;2023-06-24T04:45:19;100860.34;;;18.62;68.43
65718;BME280;52445;52.466;-1.016;2023-06-24T04:47:47;100860.31;;;18.63;68.02
65718;BME280;52445;52.466;-1.016;2023-06-24T04:50:14;100863.69;;;18.69;68.30
65718;BME280;52445;52.466;-1.016;2023-06-24T04:52:41;100858.38;;;18.72;68.89
65718;BME280;52445;52.466;-1.016;2023-06-24T04:55:07;100858.28;;;18.75;68.43
65718;BME280;52445;52.466;-1.016;2023-06-24T04:57:34;100852.94;;;18.78;68.83
65718;BME280;52445;52.466;-1.016;2023-06-24T05:00:01;100845.88;;;18.82;68.08
65718;BME280;52445;52.466;-1.016;2023-06-24T05:02:28;100847.56;;;18.84;68.15
65718;BME280;52445;52.466;-1.016;2023-06-24T05:04:54;100851.88;;;18.87;68.66
65718;BME280;52445;52.466;-1.016;2023-06-24T05:07:21;100850.09;;;18.89;69.10
65718;BME280;52445;52.466;-1.016;2023-06-24T05:09:48;100862.22;;;18.93;68.66
65718;BME280;52445;52.466;-1.016;2023-06-24T05:12:15;100857.72;;;18.98;68.50
65718;BME280;52445;52.466;-1.016;2023-06-24T05:14:42;100854.13;;;19.01;69.28
65718;BME280;52445;52.466;-1.016;2023-06-24T05:17:08;100856.72;;;19.02;68.86
65718;BME280;52445;52.466;-1.016;2023-06-24T05:19:35;100863.66;;;19.07;68.65
65718;BME280;52445;52.466;-1.016;2023-06-24T05:22:02;100854.81;;;19.11;69.08
65718;BME280;52445;52.466;-1.016;2023-06-24T05:24:29;100855.63;;;19.13;68.69
65718;BME280;52445;52.466;-1.016;2023-06-24T05:26:55;100857.28;;;19.17;69.13
65718;BME280;52445;52.466;-1.016;2023-06-24T05:29:22;100862.44;;;19.22;69.30
65718;BME280;52445;52.466;-1.016;2023-06-24T05:31:49;100859.66;;;19.26;68.86
65718;BME280;52445;52.466;-1.016;2023-06-24T05:34:15;100864.84;;;19.30;68.68
65718;BME280;52445;52.466;-1.016;2023-06-24T05:36:42;100857.72;;;19.35;68.81
65718;BME280;52445;52.466;-1.016;2023-06-24T05:39:09;100850.56;;;19.40;68.83
65718;BME280;52445;52.466;-1.016;2023-06-24T05:41:37;100862.72;;;19.44;69.08
65718;BME280;52445;52.466;-1.016;2023-06-24T05:44:06;100860.72;;;19.52;69.06
65718;BME280;52445;52.466;-1.016;2023-06-24T05:46:33;100843.06;;;19.58;68.56
65718;BME280;52445;52.466;-1.016;2023-06-24T05:49:00;100843.78;;;19.64;68.85
65718;BME280;52445;52.466;-1.016;2023-06-24T05:51:27;100848.72;;;19.75;69.12
65718;BME280;52445;52.466;-1.016;2023-06-24T05:53:53;100847.44;;;19.89;69.14
65718;BME280;52445;52.466;-1.016;2023-06-24T05:56:21;100852.22;;;20.08;69.35
65718;BME280;52445;52.466;-1.016;2023-06-24T05:58:48;100866.44;;;20.31;69.29
65718;BME280;52445;52.466;-1.016;2023-06-24T06:01:15;100860.59;;;20.49;68.63
65718;BME280;52445;52.466;-1.016;2023-06-24T06:03:42;100866.22;;;20.67;68.69
65718;BME280;52445;52.466;-1.016;2023-06-24T06:06:09;100864.50;;;20.93;69.03
65718;BME280;52445;52.466;-1.016;2023-06-24T06:08:36;100859.13;;;21.23;68.70
65718;BME280;52445;52.466;-1.016;2023-06-24T06:11:02;100854.81;;;21.46;67.90
65718;BME280;52445;52.466;-1.016;2023-06-24T06:13:30;100844.41;;;21.67;67.59
65718;BME280;52445;52.466;-1.016;2023-06-24T06:15:57;100843.81;;;21.84;67.30
65718;BME280;52445;52.466;-1.016;2023-06-24T06:18:24;100839.66;;;22.01;66.57
65718;BME280;52445;52.466;-1.016;2023-06-24T06:20:51;100838.56;;;22.06;66.54
65718;BME280;52445;52.466;-1.016;2023-06-24T06:23:17;100842.59;;;22.17;66.46
65718;BME280;52445;52.466;-1.016;2023-06-24T06:25:44;100840.75;;;22.19;65.38
65718;BME280;52445;52.466;-1.016;2023-06-24T06:28:14;100848.38;;;22.27;66.35
65718;BME280;52445;52.466;-1.016;2023-06-24T06:30:41;100862.72;;;22.42;66.69
65718;BME280;52445;52.466;-1.016;2023-06-24T06:33:07;100860.38;;;22.58;65.83
65718;BME280;52445;52.466;-1.016;2023-06-24T06:35:34;100860.50;;;22.77;65.64
65718;BME280;52445;52.466;-1.016;2023-06-24T06:38:01;100864.28;;;22.92;64.99
65718;BME280;52445;52.466;-1.016;2023-06-24T06:40:28;100854.81;;;23.07;64.94
65718;BME280;52445;52.466;-1.016;2023-06-24T06:42:55;100869.13;;;23.24;64.35
65718;BME280;52445;52.466;-1.016;2023-06-24T06:45:21;100868.31;;;23.43;64.47
65718;BME280;52445;52.466;-1.016;2023-06-24T06:47:50;100873.53;;;23.65;63.99
65718;BME280;52445;52.466;-1.016;2023-06-24T06:50:17;100869.06;;;23.86;63.76
65718;BME280;52445;52.466;-1.016;2023-06-24T06:52:43;100879.56;;;24.07;62.92
65718;BME280;52445;52.466;-1.016;2023-06-24T06:55:10;100870.00;;;24.24;62.46
65718;BME280;52445;52.466;-1.016;2023-06-24T06:57:37;100881.44;;;24.44;62.75
65718;BME280;52445;52.466;-1.016;2023-06-24T07:00:04;100878.84;;;24.61;61.62
65718;BME280;52445;52.466;-1.016;2023-06-24T07:02:31;100881.53;;;24.79;61.81
65718;BME280;52445;52.466;-1.016;2023-06-24T07:04:57;100881.41;;;25.00;61.36
65718;BME280;52445;52.466;-1.016;2023-06-24T07:07:25;100883.91;;;25.21;60.49
65718;BME280;52445;52.466;-1.016;2023-06-24T07:09:52;100885.75;;;25.36;60.28
65718;BME280;52445;52.466;-1.016;2023-06-24T07:12:18;100879.38;;;25.58;59.83
65718;BME280;52445;52.466;-1.016;2023-06-24T07:14:47;100877.88;;;25.86;59.59
65718;BME280;52445;52.466;-1.016;2023-06-24T07:17:13;100885.78;;;26.20;59.38
65718;BME280;52445;52.466;-1.016;2023-06-24T07:19:40;100891.88;;;26.38;58.09
65718;BME280;52445;52.466;-1.016;2023-06-24T07:22:07;100897.81;;;26.43;57.26
65718;BME280;52445;52.466;-1.016;2023-06-24T07:24:34;100893.44;;;26.42;56.99
65718;BME280;52445;52.466;-1.016;2023-06-24T07:27:00;100904.28;;;26.54;57.24
65718;BME280;52445;52.466;-1.016;2023-06-24T07:29:27;100907.38;;;26.62;56.78
65718;BME280;52445;52.466;-1.016;2023-06-24T07:31:54;100901.72;;;26.68;56.70
65718;BME280;52445;52.466;-1.016;2023-06-24T07:34:21;100904.19;;;26.72;56.18
65718;BME280;52445;52.466;-1.016;2023-06-24T07:36:47;100909.41;;;26.73;55.93
65718;BME280;52445;52.466;-1.016;2023-06-24T07:39:14;100910.09;;;26.77;56.27
65718;BME280;52445;52.466;-1.016;2023-06-24T07:41:41;100910.88;;;26.79;55.94
65718;BME280;52445;52.466;-1.016;2023-06-24T07:44:09;100910.47;;;26.71;55.37
65718;BME280;52445;52.466;-1.016;2023-06-24T07:46:36;100918.34;;;26.56;55.25
65718;BME280;52445;52.466;-1.016;2023-06-24T07:49:02;100917.34;;;26.42;55.48
65718;BME280;52445;52.466;-1.016;2023-06-24T07:51:30;100916.31;;;26.29;55.52
65718;BME280;52445;52.466;-1.016;2023-06-24T07:53:56;100917.13;;;26.13;55.84
65718;BME280;52445;52.466;-1.016;2023-06-24T07:56:23;100922.06;;;26.03;55.57
65718;BME280;52445;52.466;-1.016;2023-06-24T07:58:50;100924.53;;;25.90;56.16
65718;BME280;52445;52.466;-1.016;2023-06-24T08:01:16;100923.41;;;25.78;56.27
65718;BME280;52445;52.466;-1.016;2023-06-24T08:03:43;100926.28;;;25.74;56.50
65718;BME280;52445;52.466;-1.016;2023-06-24T08:06:10;100922.84;;;25.72;56.22
65718;BME280;52445;52.466;-1.016;2023-06-24T08:08:36;100931.00;;;25.69;56.50
65718;BME280;52445;52.466;-1.016;2023-06-24T08:11:03;100927.63;;;25.65;56.29
65718;BME280;52445;52.466;-1.016;2023-06-24T08:13:30;100926.00;;;25.62;56.28
65718;BME280;52445;52.466;-1.016;2023-06-24T08:15:56;100935.66;;;25.63;56.68
65718;BME280;52445;52.466;-1.016;2023-06-24T08:18:23;100928.66;;;25.62;56.52
65718;BME280;52445;52.466;-1.016;2023-06-24T08:20:50;100932.94;;;25.65;56.88
65718;BME280;52445;52.466;-1.016;2023-06-24T08:23:16;100930.06;;;25.70;56.76
65718;BME280;52445;52.466;-1.016;2023-06-24T08:25:43;100928.44;;;25.83;57.22
65718;BME280;52445;52.466;-1.016;2023-06-24T08:28:10;100932.69;;;26.03;56.68
65718;BME280;52445;52.466;-1.016;2023-06-24T08:30:37;100934.25;;;26.24;56.48
65718;BME280;52445;52.466;-1.016;2023-06-24T08:33:04;100923.00;;;26.36;56.16
65718;BME280;52445;52.466;-1.016;2023-06-24T08:35:30;100930.19;;;26.50;55.91
65718;BME280;52445;52.466;-1.016;2023-06-24T08:37:57;100930.34;;;26.63;55.99
65718;BME280;52445;52.466;-1.016;2023-06-24T08:40:24;100917.66;;;26.68;55.46
65718;BME280;52445;52.466;-1.016;2023-06-24T08:42:50;100923.97;;;26.82;55.61
65718;BME280;52445;52.466;-1.016;2023-06-24T08:45:17;100929.09;;;27.01;55.91
65718;BME280;52445;52.466;-1.016;2023-06-24T08:47:45;100924.59;;;27.18;55.32
65718;BME280;52445;52.466;-1.016;2023-06-24T08:50:13;100926.63;;;27.29;54.38
65718;BME280;52445;52.466;-1.016;2023-06-24T08:52:44;100926.06;;;27.38;55.09
65718;BME280;52445;52.466;-1.016;2023-06-24T08:55:13;100927.22;;;27.49;54.46
65718;BME280;52445;52.466;-1.016;2023-06-24T08:57:42;100925.59;;;27.61;54.35
65718;BME280;52445;52.466;-1.016;2023-06-24T09:00:09;100923.38;;;27.69;53.72
65718;BME280;52445;52.466;-1.016;2023-06-24T09:02:38;100923.19;;;27.72;54.00
65718;BME280;52445;52.466;-1.016;2023-06-24T09:05:06;100918.34;;;27.79;53.02
65718;BME280;52445;52.466;-1.016;2023-06-24T09:07:34;100923.09;;;27.88;54.07
65718;BME280;52445;52.466;-1.016;2023-06-24T09:10:01;100917.84;;;28.01;53.72
65718;BME280;52445;52.466;-1.016;2023-06-24T09:12:28;100926.31;;;28.08;53.47
65718;BME280;52445;52.466;-1.016;2023-06-24T09:14:57;100925.72;;;28.17;53.68
65718;BME280;52445;52.466;-1.016;2023-06-24T09:17:24;100924.59;;;28.21;52.88
65718;BME280;52445;52.466;-1.016;2023-06-24T09:19:53;100919.47;;;28.18;53.31
65718;BME280;52445;52.466;-1.016;2023-06-24T09:22:19;100917.72;;;28.32;52.50
65718;BME280;52445;52.466;-1.016;2023-06-24T09:24:48;100921.16;;;28.34;52.82
65718;BME280;52445;52.466;-1.016;2023-06-24T09:27:16;100917.53;;;28.35;52.27
65718;BME280;52445;52.466;-1.016;2023-06-24T09:29:46;100911.66;;;28.30;52.86
65718;BME280;52445;52.466;-1.016;2023-06-24T09:32:13;100917.81;;;28.30;53.54
65718;BME280;52445;52.466;-1.016;2023-06-24T09:34:40;100918.09;;;28.40;53.56
65718;BME280;52445;52.466;-1.016;2023-06-24T09:37:07;100914.53;;;28.54;52.64
65718;BME280;52445;52.466;-1.016;2023-06-24T09:39:39;100918.19;;;28.66;52.73
65718;BME280;52445;52.466;-1.016;2023-06-24T09:42:06;100919.31;;;28.77;51.98
65718;BME280;52445;52.466;-1.016;2023-06-24T09:44:34;100916.50;;;28.93;52.22
65718;BME280;52445;52.466;-1.016;2023-06-24T09:47:01;100918.34;;;29.18;51.91
65718;BME280;52445;52.466;-1.016;2023-06-24T09:49:28;100914.97;;;29.42;52.53
65718;BME280;52445;52.466;-1.016;2023-06-24T09:51:57;100921.81;;;29.72;52.82
65718;BME280;52445;52.466;-1.016;2023-06-24T09:54:26;100921.25;;;30.06;51.81
65718;BME280;52445;52.466;-1.016;2023-06-24T09:57:01;100908.69;;;30.33;50.87
65718;BME280;52445;52.466;-1.016;2023-06-24T09:59:30;100907.56;;;30.48;50.00
65718;BME280;52445;52.466;-1.016;2023-06-24T10:01:57;100910.97;;;30.50;49.67
65718;BME280;52445;52.466;-1.016;2023-06-24T10:04:24;100906.31;;;30.41;49.06
65718;BME280;52445;52.466;-1.016;2023-06-24T10:06:54;100911.16;;;30.36;49.48
65718;BME280;52445;52.466;-1.016;2023-06-24T10:09:21;100902.66;;;30.42;50.12
65718;BME280;52445;52.466;-1.016;2023-06-24T10:11:48;100902.16;;;30.37;49.17
65718;BME280;52445;52.466;-1.016;2023-06-24T10:14:15;100895.63;;;30.41;49.38
65718;BME280;52445;52.466;-1.016;2023-06-24T10:16:42;100894.69;;;30.53;49.01
65718;BME280;52445;52.466;-1.016;2023-06-24T10:19:09;100890.16;;;30.67;49.91
65718;BME280;52445;52.466;-1.016;2023-06-24T10:21:45;100886.59;;;30.80;48.01
65718;BME280;52445;52.466;-1.016;2023-06-24T10:24:28;100880.03;;;30.84;47.39
65718;BME280;52445;52.466;-1.016;2023-06-24T10:26:55;100886.13;;;30.97;47.79
65718;BME280;52445;52.466;-1.016;2023-06-24T10:29:47;100890.31;;;31.01;47.38
65718;BME280;52445;52.466;-1.016;2023-06-24T10:32:15;100880.56;;;31.00;46.79
65718;BME280;52445;52.466;-1.016;2023-06-24T10:34:44;100882.00;;;30.93;46.90
65718;BME280;52445;52.466;-1.016;2023-06-24T10:47:48;100881.97;;;30.82;46.53
65718;BME280;52445;52.466;-1.016;2023-06-24T10:50:19;100873.22;;;30.55;46.30
65718;BME280;52445;52.466;-1.016;2023-06-24T10:52:48;100870.03;;;30.25;46.71
65718;BME280;52445;52.466;-1.016;2023-06-24T10:55:16;100878.84;;;30.01;47.31
65718;BME280;52445;52.466;-1.016;2023-06-24T10:57:44;100878.69;;;29.79;47.98
65718;BME280;52445;52.466;-1.016;2023-06-24T11:00:11;100872.94;;;29.59;48.41
65718;BME280;52445;52.466;-1.016;2023-06-24T11:02:38;100871.31;;;29.43;49.00
65718;BME280;52445;52.466;-1.016;2023-06-24T11:05:05;100870.03;;;29.36;48.44
65718;BME280;52445;52.466;-1.016;2023-06-24T11:07:34;100873.47;;;29.38;49.53
65718;BME280;52445;52.466;-1.016;2023-06-24T11:12:39;100875.47;;;29.47;49.46
65718;BME280;52445;52.466;-1.016;2023-06-24T11:15:08;100875.28;;;29.50;49.53
65718;BME280;52445;52.466;-1.016;2023-06-24T11:17:36;100871.47;;;29.55;48.64
65718;BME280;52445;52.466;-1.016;2023-06-24T11:20:09;100870.78;;;29.64;48.73
65718;BME280;52445;52.466;-1.016;2023-06-24T11:22:36;100867.50;;;29.73;49.46
65718;BME280;52445;52.466;-1.016;2023-06-24T11:25:03;100870.09;;;29.86;48.69
65718;BME280;52445;52.466;-1.016;2023-06-24T11:27:30;100875.53;;;29.98;48.54
65718;BME280;52445;52.466;-1.016;2023-06-24T11:29:59;100864.91;;;30.09;49.43
65718;BME280;52445;52.466;-1.016;2023-06-24T11:32:36;100866.84;;;30.20;49.31
65718;BME280;52445;52.466;-1.016;2023-06-24T11:35:12;100873.47;;;30.27;48.08
65718;BME280;52445;52.466;-1.016;2023-06-24T11:37:42;100868.63;;;30.33;47.50
65718;BME280;52445;52.466;-1.016;2023-06-24T11:40:10;100865.94;;;30.33;48.15
65718;BME280;52445;52.466;-1.016;2023-06-24T11:42:38;100869.34;;;30.35;48.23
65718;BME280;52445;52.466;-1.016;2023-06-24T11:45:07;100866.66;;;30.35;47.63
65718;BME280;52445;52.466;-1.016;2023-06-24T11:47:35;100858.66;;;30.35;47.98
65718;BME280;52445;52.466;-1.016;2023-06-24T11:50:04;100871.06;;;30.36;47.63
65718;BME280;52445;52.466;-1.016;2023-06-24T11:55:18;100862.19;;;30.35;47.53
65718;BME280;52445;52.466;-1.016;2023-06-24T12:00:26;100848.69;;;30.61;47.54
65718;BME280;52445;52.466;-1.016;2023-06-24T12:02:55;100856.88;;;30.71;47.86
65718;BME280;52445;52.466;-1.016;2023-06-24T12:05:24;100858.63;;;30.84;48.02
65718;BME280;52445;52.466;-1.016;2023-06-24T12:07:55;100843.34;;;30.97;47.31
65718;BME280;52445;52.466;-1.016;2023-06-24T12:10:23;100845.22;;;31.08;47.36
65718;BME280;52445;52.466;-1.016;2023-06-24T12:12:50;100852.16;;;31.22;47.47
65718;BME280;52445;52.466;-1.016;2023-06-24T12:15:17;100855.47;;;31.37;46.58
65718;BME280;52445;52.466;-1.016;2023-06-24T12:17:43;100841.72;;;31.42;46.21
65718;BME280;52445;52.466;-1.016;2023-06-24T12:20:10;100841.50;;;31.45;45.47
65718;BME280;52445;52.466;-1.016;2023-06-24T12:22:37;100844.88;;;31.47;45.76
65718;BME280;52445;52.466;-1.016;2023-06-24T12:25:04;100838.56;;;31.60;45.51
65718;BME280;52445;52.466;-1.016;2023-06-24T12:27:31;100845.63;;;31.72;45.37
65718;BME280;52445;52.466;-1.016;2023-06-24T12:29:57;100836.13;;;31.79;44.89
65718;BME280;52445;52.466;-1.016;2023-06-24T12:32:24;100837.56;;;31.84;44.73
65718;BME280;52445;52.466;-1.016;2023-06-24T12:34:50;100832.69;;;31.89;45.71
65718;BME280;52445;52.466;-1.016;2023-06-24T12:37:17;100830.34;;;32.07;45.94
65718;BME280;52445;52.466;-1.016;2023-06-24T12:39:44;100836.50;;;32.30;46.25
65718;BME280;52445;52.466;-1.016;2023-06-24T12:42:11;100833.88;;;32.52;45.21
65718;BME280;52445;52.466;-1.016;2023-06-24T12:44:38;100837.34;;;32.64;44.25
65718;BME280;52445;52.466;-1.016;2023-06-24T12:47:04;100830.72;;;32.68;45.20
65718;BME280;52445;52.466;-1.016;2023-06-24T12:49:31;100831.66;;;32.78;44.74
65718;BME280;52445;52.466;-1.016;2023-06-24T12:51:58;100829.78;;;32.90;44.51
65718;BME280;52445;52.466;-1.016;2023-06-24T12:54:24;100830.47;;;32.92;43.95
65718;BME280;52445;52.466;-1.016;2023-06-24T12:56:51;100818.63;;;32.95;43.53
65718;BME280;52445;52.466;-1.016;2023-06-24T12:59:30;100822.88;;;32.98;43.00
65718;BME280;52445;52.466;-1.016;2023-06-24T13:01:57;100827.66;;;32.94;43.39
65718;BME280;52445;52.466;-1.016;2023-06-24T13:04:24;100825.50;;;32.88;43.04
65718;BME280;52445;52.466;-1.016;2023-06-24T13:06:51;100821.13;;;32.87;43.42
65718;BME280;52445;52.466;-1.016;2023-06-24T13:09:18;100822.81;;;32.88;43.52
65718;BME280;52445;52.466;-1.016;2023-06-24T13:11:44;100807.59;;;32.88;43.03
65718;BME280;52445;52.466;-1.016;2023-06-24T13:14:12;100810.84;;;32.92;43.62